createdAt,value
2023-01-17T00:02:16.570Z,25.38
2023-01-17T00:05:02.122Z,25.10
2023-01-17T00:07:48.019Z,25.73
2023-01-17T00:10:17.972Z,23.13
2023-01-17T00:12:53.380Z,26.83
2023-01-17T00:15:22.967Z,23.23
2023-01-17T00:17:50.638Z,27.48
2023-01-17T00:20:38.959Z,23.77
2023-01-17T00:23:34.310Z,24.13
2023-01-17T00:26:04.217Z,24.13
2023-01-17T00:28:36.889Z,24.38
2023-01-17T00:31:05.391Z,25.85
2023-01-17T00:33:33.075Z,26.70
2023-01-17T00:36:01.117Z,26.42
2023-01-17T00:38:31.059Z,24.17
2023-01-17T00:41:06.354Z,22.48
2023-01-17T00:43:52.763Z,18.08
2023-01-17T00:46:38.771Z,16.65
2023-01-17T00:49:25.204Z,14.20
2023-01-17T00:52:10.806Z,15.65
2023-01-17T00:54:56.850Z,18.10
2023-01-17T00:57:42.438Z,16.65
2023-01-17T01:00:29.194Z,18.75
2023-01-17T01:03:14.916Z,16.60
2023-01-17T01:06:00.610Z,16.90
2023-01-17T01:08:48.521Z,16.77
2023-01-17T01:11:37.623Z,18.20
2023-01-17T01:14:24.393Z,17.67
2023-01-17T01:17:10.077Z,15.88
2023-01-17T01:19:55.631Z,16.90
2023-01-17T01:22:41.304Z,17.63
2023-01-17T01:25:26.794Z,20.02
2023-01-17T01:28:20.881Z,16.52
2023-01-17T01:31:06.173Z,17.40
2023-01-17T01:33:33.181Z,17.17
2023-01-17T01:35:59.969Z,15.30
2023-01-17T01:38:27.159Z,15.82
2023-01-17T01:40:56.384Z,15.15
2023-01-17T01:43:45.116Z,13.20
2023-01-17T01:46:34.337Z,12.60
2023-01-17T01:49:04.095Z,12.35
2023-01-17T01:51:41.593Z,12.02
2023-01-17T01:56:41.744Z,12.38
2023-01-17T01:59:11.280Z,10.82
2023-01-17T02:01:38.275Z,10.90
2023-01-17T02:04:10.109Z,11.68
2023-01-17T02:06:45.981Z,10.25
2023-01-17T02:09:17.139Z,10.85
2023-01-17T02:11:46.232Z,10.48
2023-01-17T02:14:18.310Z,10.52
2023-01-17T02:17:03.614Z,10.40
2023-01-17T02:20:01.052Z,9.85
2023-01-17T02:22:33.552Z,9.75
2023-01-17T02:25:28.171Z,10.27
2023-01-17T02:28:32.463Z,9.45
2023-01-17T02:31:09.742Z,9.63
2023-01-17T02:33:44.808Z,8.35
2023-01-17T02:36:51.433Z,8.77
2023-01-17T02:39:30.099Z,8.18
2023-01-17T02:42:09.828Z,5.88
2023-01-17T02:44:41.804Z,5.38
2023-01-17T02:47:25.483Z,5.55
2023-01-17T02:50:01.460Z,6.45
2023-01-17T02:52:56.569Z,6.10
2023-01-17T02:56:14.122Z,5.43
2023-01-17T02:59:09.743Z,4.97
2023-01-17T03:01:58.292Z,4.95
2023-01-17T03:04:37.718Z,5.18
2023-01-17T03:07:09.846Z,4.50
2023-01-17T03:09:38.673Z,4.88
2023-01-17T03:12:06.269Z,4.75
2023-01-17T03:14:33.722Z,5.10
2023-01-17T03:17:00.669Z,4.82
2023-01-17T03:19:27.870Z,4.85
2023-01-17T03:21:54.932Z,4.63
2023-01-17T03:24:22.020Z,3.88
2023-01-17T03:26:49.187Z,4.05
2023-01-17T03:29:17.646Z,4.35
2023-01-17T03:31:44.736Z,4.38
2023-01-17T03:34:11.852Z,4.93
2023-01-17T03:36:38.659Z,4.70
2023-01-17T03:39:05.748Z,5.03
2023-01-17T03:41:32.599Z,5.28
2023-01-17T03:44:00.894Z,5.80
2023-01-17T03:46:28.820Z,5.90
2023-01-17T03:48:55.989Z,5.70
2023-01-17T03:51:23.035Z,5.70
2023-01-17T03:53:52.001Z,4.72
2023-01-17T03:56:19.112Z,5.32
2023-01-17T03:58:46.222Z,5.55
2023-01-17T04:01:13.536Z,5.50
2023-01-17T04:03:40.857Z,6.10
2023-01-17T04:06:07.976Z,5.35
2023-01-17T04:08:35.114Z,6.55
2023-01-17T04:11:02.179Z,6.35
2023-01-17T04:13:29.397Z,6.38
2023-01-17T04:15:56.453Z,7.10
2023-01-17T04:18:24.587Z,7.38
2023-01-17T04:20:51.890Z,8.55
2023-01-17T04:23:19.636Z,8.50
2023-01-17T04:25:46.547Z,8.40
2023-01-17T04:28:14.076Z,7.68
2023-01-17T04:30:41.402Z,8.35
2023-01-17T04:33:08.586Z,8.65
2023-01-17T04:35:36.152Z,8.45
2023-01-17T04:38:03.303Z,7.30
2023-01-17T04:40:30.134Z,6.95
2023-01-17T04:42:58.084Z,8.88
2023-01-17T04:45:25.230Z,9.77
2023-01-17T04:47:52.682Z,10.63
2023-01-17T04:50:19.698Z,8.38
2023-01-17T04:52:46.827Z,9.23
2023-01-17T04:55:13.729Z,8.80
2023-01-17T04:57:40.893Z,8.68
2023-01-17T05:00:08.553Z,9.00
2023-01-17T05:02:35.689Z,7.82
2023-01-17T05:05:02.566Z,7.50
2023-01-17T05:07:29.764Z,7.43
2023-01-17T05:09:56.681Z,7.72
2023-01-17T05:12:23.813Z,8.30
2023-01-17T05:14:50.858Z,10.15
2023-01-17T05:17:18.057Z,14.10
2023-01-17T05:19:45.205Z,30.23
2023-01-17T05:22:16.256Z,38.42
2023-01-17T05:24:44.840Z,36.58
2023-01-17T05:27:12.783Z,33.28
2023-01-17T05:29:40.171Z,16.10
2023-01-17T05:32:07.718Z,12.15
2023-01-17T05:34:35.154Z,12.75
2023-01-17T05:37:02.624Z,14.32
2023-01-17T05:39:31.066Z,19.65
2023-01-17T05:41:59.288Z,29.75
2023-01-17T05:44:27.739Z,21.05
2023-01-17T05:46:56.181Z,49.90
2023-01-17T05:49:23.097Z,15.93
2023-01-17T05:51:50.442Z,13.27
2023-01-17T05:54:17.489Z,13.55
2023-01-17T05:56:44.602Z,14.10
2023-01-17T05:59:14.043Z,15.55
2023-01-17T06:01:41.420Z,16.05
2023-01-17T06:04:08.302Z,15.95
2023-01-17T06:06:35.450Z,14.02
2023-01-17T06:09:02.474Z,11.88
2023-01-17T06:11:29.625Z,10.73
2023-01-17T06:13:56.518Z,12.57
2023-01-17T06:16:23.741Z,12.65
2023-01-17T06:18:51.640Z,14.75
2023-01-17T06:21:19.776Z,13.63
2023-01-17T06:23:46.873Z,13.65
2023-01-17T06:26:14.043Z,17.95
2023-01-17T06:28:41.288Z,16.05
2023-01-17T06:31:09.237Z,16.52
2023-01-17T06:33:36.337Z,17.35
2023-01-17T06:36:03.752Z,17.40
2023-01-17T06:38:30.775Z,17.73
2023-01-17T06:41:00.462Z,18.50
2023-01-17T06:43:32.675Z,17.70
2023-01-17T06:46:01.262Z,15.63
2023-01-17T06:48:28.309Z,15.55
2023-01-17T06:50:57.716Z,14.05
2023-01-17T06:53:24.687Z,16.48
2023-01-17T06:55:52.615Z,17.17
2023-01-17T06:58:19.445Z,18.83
2023-01-17T07:00:46.925Z,17.45
2023-01-17T07:03:20.114Z,16.80
2023-01-17T07:05:48.211Z,16.20
2023-01-17T07:08:16.996Z,15.13
2023-01-17T07:10:45.681Z,14.43
2023-01-17T07:13:13.596Z,15.15
2023-01-17T07:15:40.832Z,15.52
2023-01-17T07:18:08.099Z,15.73
2023-01-17T07:20:35.230Z,15.32
2023-01-17T07:23:02.101Z,15.65
2023-01-17T07:25:29.328Z,15.30
2023-01-17T07:27:57.738Z,15.88
2023-01-17T07:30:25.457Z,16.92
2023-01-17T07:32:53.772Z,16.95
2023-01-17T07:35:21.694Z,19.08
2023-01-17T07:37:52.101Z,17.20
2023-01-17T07:40:20.667Z,22.83
2023-01-17T07:42:47.609Z,31.60
2023-01-17T07:45:16.533Z,27.55
2023-01-17T07:47:43.373Z,32.50
2023-01-17T07:50:11.316Z,23.60
2023-01-17T07:52:38.321Z,19.92
2023-01-17T07:55:06.268Z,19.15
2023-01-17T07:57:33.212Z,21.38
2023-01-17T08:00:00.289Z,23.92
2023-01-17T08:02:27.165Z,26.10
2023-01-17T08:04:54.308Z,23.08
2023-01-17T08:07:21.284Z,22.90
2023-01-17T08:09:50.252Z,40.63
2023-01-17T08:12:17.182Z,23.45
2023-01-17T08:14:44.666Z,76.53
2023-01-17T08:17:16.164Z,28.27
2023-01-17T08:19:43.566Z,20.15
2023-01-17T08:22:12.322Z,22.00
2023-01-17T08:24:39.552Z,31.38
2023-01-17T08:27:06.377Z,51.80
2023-01-17T08:29:33.593Z,32.30
2023-01-17T08:32:00.762Z,25.80
2023-01-17T08:34:28.123Z,33.10
2023-01-17T08:36:55.337Z,34.33
2023-01-17T08:39:22.698Z,30.80
2023-01-17T08:41:49.670Z,41.78
2023-01-17T08:44:16.971Z,39.50
2023-01-17T08:46:44.329Z,35.08
2023-01-17T08:49:12.384Z,52.83
2023-01-17T08:51:40.173Z,30.48
2023-01-17T08:54:09.638Z,36.63
2023-01-17T08:56:36.772Z,39.85
2023-01-17T08:59:03.956Z,32.35
2023-01-17T09:01:42.281Z,37.65
2023-01-17T09:04:10.254Z,17.83
2023-01-17T09:06:39.364Z,21.83
2023-01-17T09:09:07.456Z,15.80
2023-01-17T09:11:34.715Z,17.38
2023-01-17T09:14:01.981Z,19.23
2023-01-17T09:16:29.317Z,18.23
2023-01-17T09:18:57.890Z,17.40
2023-01-17T09:21:26.341Z,14.25
2023-01-17T09:23:53.731Z,15.15
2023-01-17T09:26:28.987Z,18.10
2023-01-17T09:28:58.783Z,46.60
2023-01-17T09:31:27.330Z,16.70
2023-01-17T09:33:55.935Z,19.67
2023-01-17T09:36:24.108Z,11.88
2023-01-17T09:38:56.466Z,16.27
2023-01-17T09:41:30.599Z,15.23
2023-01-17T09:43:57.464Z,12.43
2023-01-17T09:46:31.150Z,12.43
2023-01-17T09:49:26.950Z,10.93
2023-01-17T09:51:54.788Z,10.95
2023-01-17T09:54:23.928Z,11.68
2023-01-17T09:57:01.284Z,9.93
2023-01-17T10:00:03.453Z,9.80
2023-01-17T10:05:11.711Z,8.80
2023-01-17T10:10:28.557Z,8.32
2023-01-17T10:13:12.064Z,9.75
2023-01-17T10:16:13.682Z,8.13
2023-01-17T10:18:56.610Z,9.20
2023-01-17T10:21:54.556Z,7.60
2023-01-17T10:24:36.768Z,8.57
2023-01-17T10:27:19.551Z,8.77
2023-01-17T10:29:49.064Z,8.25
2023-01-17T10:32:16.167Z,9.85
2023-01-17T10:34:53.457Z,10.25
2023-01-17T10:37:36.460Z,7.45
2023-01-17T10:40:16.411Z,7.03
2023-01-17T10:42:47.521Z,7.53
2023-01-17T10:45:21.153Z,7.85
2023-01-17T10:47:54.070Z,9.15
2023-01-17T10:50:23.993Z,7.07
2023-01-17T10:53:00.326Z,9.43
2023-01-17T10:55:33.458Z,7.93
2023-01-17T10:58:01.508Z,7.82
2023-01-17T11:01:01.167Z,7.85
2023-01-17T11:03:28.957Z,7.10
2023-01-17T11:06:25.060Z,7.97
2023-01-17T11:08:57.269Z,7.95
2023-01-17T11:11:30.376Z,8.30
2023-01-17T11:14:00.930Z,7.82
2023-01-17T11:16:33.359Z,7.38
2023-01-17T11:19:28.708Z,7.38
2023-01-17T11:22:01.720Z,5.97
2023-01-17T11:24:36.455Z,5.85
2023-01-17T11:27:22.807Z,5.38
2023-01-17T11:30:04.071Z,5.35
2023-01-17T11:32:34.090Z,5.75
2023-01-17T11:35:31.301Z,5.63
2023-01-17T11:38:12.169Z,6.07
2023-01-17T11:40:44.274Z,6.22
2023-01-17T11:43:11.405Z,5.40
2023-01-17T11:45:39.790Z,5.10
2023-01-17T11:48:11.052Z,4.35
2023-01-17T11:50:41.231Z,4.50
2023-01-17T11:53:28.786Z,4.68
2023-01-17T11:56:22.456Z,4.13
2023-01-17T11:58:51.117Z,4.80
2023-01-17T12:01:27.169Z,4.38
2023-01-17T12:04:03.304Z,4.78
2023-01-17T12:06:57.730Z,11.93
2023-01-17T12:09:28.538Z,33.38
2023-01-17T12:12:24.081Z,48.63
2023-01-17T12:15:00.048Z,31.73
2023-01-17T12:17:55.067Z,16.35
2023-01-17T12:20:31.908Z,15.52
2023-01-17T12:23:17.435Z,21.55
2023-01-17T12:26:12.455Z,12.40
2023-01-17T12:29:01.030Z,4.38
2023-01-17T12:31:36.816Z,16.02
2023-01-17T12:34:33.354Z,5.28
2023-01-17T12:37:16.689Z,6.40
2023-01-17T12:39:51.500Z,7.05
2023-01-17T12:42:24.168Z,5.07
2023-01-17T12:45:02.871Z,5.78
2023-01-17T12:47:34.141Z,5.75
2023-01-17T12:50:05.372Z,5.68
2023-01-17T12:52:51.210Z,7.30
2023-01-17T12:55:36.750Z,5.25
2023-01-17T12:58:11.401Z,11.00
2023-01-17T13:00:39.724Z,5.30
2023-01-17T13:03:34.790Z,4.82
2023-01-17T13:06:03.479Z,5.03
2023-01-17T13:08:42.791Z,8.20
2023-01-17T13:11:27.894Z,7.43
2023-01-17T13:13:57.617Z,4.35
2023-01-17T13:16:32.408Z,4.60
2023-01-17T13:19:11.395Z,5.68
2023-01-17T13:21:38.849Z,4.57
2023-01-17T13:24:36.768Z,4.95
2023-01-17T13:27:18.649Z,3.90
2023-01-17T13:30:11.355Z,3.50
2023-01-17T13:33:15.257Z,4.07
2023-01-17T13:36:01.027Z,3.95
2023-01-17T13:38:35.882Z,4.05
2023-01-17T13:41:32.133Z,4.88
2023-01-17T13:44:19.652Z,5.43
2023-01-17T13:47:19.013Z,3.30
2023-01-17T13:49:56.506Z,3.67
2023-01-17T13:52:23.704Z,3.08
2023-01-17T13:54:51.874Z,3.80
2023-01-17T13:57:36.312Z,4.72
2023-01-17T14:00:15.835Z,4.65
2023-01-17T14:02:43.685Z,4.85
2023-01-17T14:05:42.413Z,4.25
2023-01-17T14:08:21.972Z,3.75
2023-01-17T14:10:53.195Z,4.00
2023-01-17T14:13:38.638Z,6.03
2023-01-17T14:16:27.182Z,6.72
2023-01-17T14:18:55.926Z,5.57
2023-01-17T14:21:32.133Z,5.55
2023-01-17T14:24:06.002Z,5.22
2023-01-17T14:26:37.640Z,5.22
2023-01-17T14:29:46.716Z,5.78
2023-01-17T14:32:17.632Z,3.65
2023-01-17T14:34:46.921Z,4.10
2023-01-17T14:37:50.742Z,3.95
2023-01-17T14:40:20.409Z,3.70
2023-01-17T14:42:52.855Z,3.92
2023-01-17T14:45:28.774Z,4.38
2023-01-17T14:47:58.832Z,4.97
2023-01-17T14:50:25.991Z,5.13
2023-01-17T14:53:11.272Z,5.00
2023-01-17T14:55:49.273Z,5.72
2023-01-17T14:58:41.604Z,5.78
2023-01-17T15:01:14.491Z,5.97
2023-01-17T15:03:48.167Z,6.25
2023-01-17T15:06:48.107Z,7.63
2023-01-17T15:09:27.325Z,7.13
2023-01-17T15:11:55.797Z,6.65
2023-01-17T15:14:36.460Z,7.18
2023-01-17T15:17:11.205Z,9.52
2023-01-17T15:19:43.796Z,11.52
2023-01-17T15:22:11.958Z,13.30
2023-01-17T15:24:44.942Z,15.25
2023-01-17T15:27:17.000Z,16.85
2023-01-17T15:29:46.775Z,14.70
2023-01-17T15:32:24.942Z,15.80
2023-01-17T15:34:52.700Z,16.60
2023-01-17T15:37:32.862Z,17.25
2023-01-17T15:40:19.533Z,17.30
2023-01-17T15:42:49.618Z,18.08
2023-01-17T15:45:21.927Z,27.90
2023-01-17T15:47:49.455Z,32.95
2023-01-17T15:50:30.051Z,46.35
2023-01-17T15:53:03.446Z,70.30
2023-01-17T15:55:38.120Z,79.90
2023-01-17T15:58:22.885Z,72.93
2023-01-17T16:00:49.799Z,70.68
2023-01-17T16:03:24.841Z,65.13
2023-01-17T16:05:54.590Z,62.65
2023-01-17T16:08:30.625Z,52.63
2023-01-17T16:11:02.141Z,52.30
2023-01-17T16:13:31.641Z,54.92
2023-01-17T16:16:20.652Z,68.75
2023-01-17T16:18:49.041Z,67.60
2023-01-17T16:21:23.448Z,69.68
2023-01-17T16:23:51.318Z,79.30
2023-01-17T16:26:18.390Z,89.85
2023-01-17T16:28:46.657Z,87.10
2023-01-17T16:31:13.743Z,80.30
2023-01-17T16:33:42.354Z,86.05
2023-01-17T16:36:16.656Z,91.47
2023-01-17T16:38:45.645Z,91.80
2023-01-17T16:41:12.780Z,105.55
2023-01-17T16:43:40.237Z,100.13
2023-01-17T16:46:07.884Z,94.80
2023-01-17T16:48:37.473Z,83.28
2023-01-17T16:51:07.879Z,85.03
2023-01-17T16:53:36.437Z,75.15
2023-01-17T16:56:16.616Z,74.72
2023-01-17T16:58:44.237Z,79.13
2023-01-17T17:01:12.013Z,74.78
2023-01-17T17:03:39.237Z,78.20
2023-01-17T17:06:06.364Z,99.20
2023-01-17T17:08:34.767Z,83.35
2023-01-17T17:11:27.791Z,77.00
2023-01-17T17:13:54.971Z,80.00
2023-01-17T17:16:33.965Z,73.80
2023-01-17T17:19:06.310Z,71.38
2023-01-17T17:21:34.684Z,66.60
2023-01-17T17:24:02.091Z,60.92
2023-01-17T17:26:34.973Z,61.55
2023-01-17T17:29:03.457Z,56.42
2023-01-17T17:31:30.588Z,54.78
2023-01-17T17:34:02.173Z,51.45
2023-01-17T17:36:30.023Z,50.60
2023-01-17T17:38:58.060Z,52.72
2023-01-17T17:41:28.240Z,55.55
2023-01-17T17:43:56.008Z,56.35
2023-01-17T17:46:24.868Z,57.05
2023-01-17T17:48:52.320Z,63.00
2023-01-17T17:51:26.699Z,64.97
2023-01-17T17:53:55.775Z,59.33
2023-01-17T17:56:23.888Z,48.95
2023-01-17T17:58:51.192Z,47.60
2023-01-17T18:01:18.240Z,54.25
2023-01-17T18:03:45.506Z,60.83
2023-01-17T18:06:13.315Z,58.65
2023-01-17T18:08:40.536Z,62.10
2023-01-17T18:11:11.344Z,58.08
2023-01-17T18:13:39.066Z,61.05
2023-01-17T18:16:08.588Z,54.28
2023-01-17T18:18:37.907Z,56.80
2023-01-17T18:21:15.019Z,60.70
2023-01-17T18:23:45.641Z,74.25
2023-01-17T18:26:18.155Z,72.10
2023-01-17T18:28:45.716Z,69.07
2023-01-17T18:31:13.300Z,82.43
2023-01-17T18:33:41.226Z,81.95
2023-01-17T18:36:10.581Z,76.25
2023-01-17T18:38:44.437Z,62.85
2023-01-17T18:41:16.218Z,64.38
2023-01-17T18:43:43.611Z,49.38
2023-01-17T18:46:12.080Z,54.60
2023-01-17T18:48:39.331Z,68.15
2023-01-17T18:51:11.166Z,63.30
2023-01-17T18:53:39.810Z,61.60
2023-01-17T18:56:10.655Z,56.78
2023-01-17T18:58:43.029Z,34.90
2023-01-17T19:01:35.291Z,48.13
2023-01-17T19:04:05.199Z,44.60
2023-01-17T19:06:35.064Z,33.30
2023-01-17T19:09:02.827Z,44.38
2023-01-17T19:11:30.417Z,34.30
2023-01-17T19:13:57.613Z,29.58
2023-01-17T19:16:30.655Z,23.60
2023-01-17T19:19:04.586Z,23.42
2023-01-17T19:21:32.239Z,24.42
2023-01-17T19:23:59.516Z,27.73
2023-01-17T19:26:27.571Z,28.35
2023-01-17T19:28:56.479Z,26.25
2023-01-17T19:31:26.223Z,28.35
2023-01-17T19:33:57.541Z,41.65
2023-01-17T19:36:31.391Z,42.50
2023-01-17T19:39:04.983Z,31.35
2023-01-17T19:41:34.443Z,21.95
2023-01-17T19:44:04.183Z,19.20
2023-01-17T19:46:31.486Z,21.73
2023-01-17T19:48:59.678Z,22.00
2023-01-17T19:51:27.483Z,22.15
2023-01-17T19:53:55.222Z,18.63
2023-01-17T19:56:24.977Z,19.88
2023-01-17T19:58:52.936Z,18.38
2023-01-17T20:01:29.629Z,25.70
2023-01-17T20:03:58.705Z,27.73
2023-01-17T20:06:31.316Z,26.80
2023-01-17T20:08:58.453Z,23.73
2023-01-17T20:11:27.489Z,17.65
2023-01-17T20:13:56.919Z,18.50
2023-01-17T20:16:25.474Z,22.05
2023-01-17T20:18:52.850Z,21.92
2023-01-17T20:21:26.078Z,24.95
2023-01-17T20:23:54.805Z,21.52
2023-01-17T20:26:31.282Z,26.85
2023-01-17T20:28:58.480Z,25.90
2023-01-17T20:31:25.963Z,23.17
2023-01-17T20:33:54.732Z,22.17
2023-01-17T20:36:24.580Z,24.70
2023-01-17T20:38:53.355Z,23.42
2023-01-17T20:41:24.153Z,23.13
2023-01-17T20:43:57.007Z,22.33
2023-01-17T20:46:27.246Z,25.92
2023-01-17T20:48:56.542Z,22.30
2023-01-17T20:51:25.848Z,25.55
2023-01-17T20:53:58.237Z,26.10
2023-01-17T20:56:25.932Z,32.47
2023-01-17T20:58:54.340Z,25.33
2023-01-17T21:01:24.163Z,30.05
2023-01-17T21:03:54.014Z,30.05
2023-01-17T21:06:22.412Z,28.85
2023-01-17T21:08:50.541Z,28.55
2023-01-17T21:11:21.011Z,26.48
2023-01-17T21:13:48.908Z,27.13
2023-01-17T21:16:19.199Z,26.73
2023-01-17T21:18:48.233Z,26.92
2023-01-17T21:21:22.143Z,25.48
2023-01-17T21:23:51.189Z,27.33
2023-01-17T21:26:19.717Z,24.65
2023-01-17T21:28:48.908Z,25.85
2023-01-17T21:31:24.728Z,34.50
2023-01-17T21:33:58.321Z,75.63
2023-01-17T21:36:32.614Z,37.42
2023-01-17T21:39:04.884Z,38.70
2023-01-17T21:41:38.245Z,38.08
2023-01-17T21:44:19.583Z,43.45
2023-01-17T21:46:47.028Z,37.60
2023-01-17T21:49:14.635Z,40.75
2023-01-17T21:52:03.057Z,40.47
2023-01-17T21:54:49.619Z,36.47
2023-01-17T21:57:38.632Z,41.05
2023-01-17T22:00:07.920Z,39.20
2023-01-17T22:02:34.899Z,37.58
2023-01-17T22:05:02.123Z,39.08
2023-01-17T22:07:29.255Z,37.25
2023-01-17T22:09:57.090Z,38.97
2023-01-17T22:12:24.234Z,41.65
2023-01-17T22:14:52.668Z,40.60
2023-01-17T22:17:21.098Z,34.20
2023-01-17T22:19:48.329Z,31.30
2023-01-17T22:22:15.391Z,30.63
2023-01-17T22:24:42.464Z,30.42
2023-01-17T22:27:10.038Z,30.98
2023-01-17T22:29:37.987Z,31.10
2023-01-17T22:32:05.244Z,31.48
2023-01-17T22:34:32.339Z,27.40
2023-01-17T22:37:00.561Z,19.42
2023-01-17T22:39:27.668Z,23.85
2023-01-17T22:41:54.543Z,22.08
2023-01-17T22:44:21.682Z,27.30
2023-01-17T22:46:48.501Z,22.75
2023-01-17T22:49:16.922Z,19.45
2023-01-17T22:51:43.886Z,21.90
2023-01-17T22:54:11.538Z,16.45
2023-01-17T22:56:38.525Z,16.98
2023-01-17T22:59:11.374Z,17.20
2023-01-17T23:01:42.515Z,18.73
2023-01-17T23:04:13.318Z,18.88
2023-01-17T23:06:41.289Z,16.05
2023-01-17T23:09:13.927Z,15.73
2023-01-17T23:11:52.816Z,16.63
2023-01-17T23:14:21.157Z,16.65
2023-01-17T23:17:10.516Z,16.30
2023-01-17T23:19:42.816Z,17.55
2023-01-17T23:22:21.376Z,20.10
2023-01-17T23:25:08.011Z,18.70
2023-01-17T23:27:57.665Z,19.23
2023-01-17T23:30:34.579Z,20.67
2023-01-17T23:33:04.303Z,18.33
2023-01-17T23:35:41.426Z,19.80
2023-01-17T23:38:33.994Z,21.52
2023-01-17T23:41:22.482Z,19.70
2023-01-17T23:43:53.975Z,21.23
2023-01-17T23:46:21.653Z,18.85
2023-01-17T23:48:48.497Z,18.60
2023-01-17T23:51:16.007Z,18.02
2023-01-17T23:53:43.066Z,17.00
2023-01-17T23:56:23.158Z,15.07
2023-01-17T23:58:50.422Z,14.60
